»·PEaware :: N664NT KJFK-KEWR

N664NT :: KJFK-KEWR

FLIGHT INFORMATION

Flight Status: Arrived
Operator: Privately registered:
United States
More flights under this callsign
Pilot: Anonymous 328 (328)
Aircraft: Unknown
(GA7C)
More flights by this aircraft type
Origin: KJFK Kennedy Intl
United States
Destination: KEWR Newark Intl
United States
More flights between these airports :: More routes between these airports
Route: JFK5 JFK V16 DIXIE V276 RBV V249 SBJ
File this flight plan on PilotEdge
Remarks:
Altitude:
(Current/Filed)
6,000ft
Speed:
(Current/Filed)
0kts
Departed: 15-Nov-22 11:18 AM
Arrived: 15-Nov-22 12:11 PM
Distance/Time
Traveled:
18nm/0:53
Distance/Time
To Go:
Arrived

Flight Plot

Page will automatically refresh every two minutes.

Flight plan parsing failed; only flown route is shown


Map Options




Map Legend


Flown Route
Filed Route
Departure Airport
Arrival Airport
Navaid (VOR, NDB)
Fix

Horizontal Profiles

Position Reports

Time Latitude Longitude Heading Altitude Ground
Speed
15-Nov-22 10:14 40.650547 -73.811073 231 20ft 0kts
15-Nov-22 10:15 40.650547 -73.811073 231 20ft 0kts
15-Nov-22 10:16 40.650547 -73.811073 231 20ft 0kts
15-Nov-22 10:17 40.650547 -73.811073 231 20ft 0kts
15-Nov-22 10:18 40.650547 -73.811073 231 20ft 0kts
15-Nov-22 10:19 40.650547 -73.811073 231 20ft 0kts
15-Nov-22 10:20 40.650547 -73.811073 231 20ft 0kts
15-Nov-22 10:21 40.650547 -73.811073 231 20ft 0kts
15-Nov-22 10:22 40.650547 -73.811073 231 20ft 0kts
15-Nov-22 10:23 40.650547 -73.811073 231 20ft 0kts
15-Nov-22 10:24 40.650547 -73.811073 231 20ft 0kts
15-Nov-22 10:25 40.650547 -73.811073 231 20ft 0kts
15-Nov-22 10:26 40.650547 -73.811073 231 20ft 0kts
15-Nov-22 10:27 40.650547 -73.811073 231 20ft 0kts
15-Nov-22 10:28 40.650547 -73.811073 231 20ft 0kts
15-Nov-22 10:29 40.650547 -73.811073 231 20ft 0kts
15-Nov-22 10:30 40.650547 -73.811073 231 20ft 0kts
15-Nov-22 10:31 40.650547 -73.811073 231 20ft 0kts
15-Nov-22 10:32 40.650547 -73.811073 231 20ft 0kts
15-Nov-22 10:33 40.650547 -73.811073 231 20ft 0kts
15-Nov-22 10:34 40.650547 -73.811073 231 20ft 0kts
15-Nov-22 10:35 40.650547 -73.811073 231 20ft 0kts
15-Nov-22 10:36 40.650547 -73.811073 231 20ft 0kts
15-Nov-22 10:37 40.650547 -73.811073 231 20ft 0kts
15-Nov-22 10:38 40.650547 -73.811073 231 20ft 0kts
15-Nov-22 10:39 40.650547 -73.811073 231 20ft 0kts
15-Nov-22 10:40 40.650547 -73.811073 231 20ft 0kts
15-Nov-22 10:41 40.650547 -73.811073 231 20ft 0kts
15-Nov-22 10:42 40.650547 -73.811073 231 20ft 0kts
15-Nov-22 10:43 40.650547 -73.811073 231 20ft 0kts
15-Nov-22 10:44 40.650547 -73.811073 231 20ft 0kts
15-Nov-22 10:45 40.650547 -73.811073 231 20ft 0kts
15-Nov-22 10:46 40.650547 -73.811073 231 20ft 0kts
15-Nov-22 10:47 40.650547 -73.811073 231 20ft 0kts
15-Nov-22 10:48 40.650547 -73.811073 231 20ft 0kts
15-Nov-22 10:49 40.650547 -73.811073 231 20ft 0kts
15-Nov-22 10:50 40.650547 -73.811073 231 20ft 0kts
15-Nov-22 10:51 40.650547 -73.811073 231 20ft 0kts
15-Nov-22 10:52 40.650547 -73.811073 231 20ft 0kts
15-Nov-22 10:53 40.650547 -73.811073 231 20ft 0kts
15-Nov-22 10:54 40.650547 -73.811073 231 20ft 0kts
15-Nov-22 10:55 40.650547 -73.811073 231 20ft 0kts
15-Nov-22 10:56 40.650547 -73.811073 231 20ft 0kts
15-Nov-22 10:58 40.650547 -73.811073 231 20ft 0kts
15-Nov-22 10:59 40.650547 -73.811073 231 20ft 0kts
15-Nov-22 11:00 40.650547 -73.811073 231 20ft 0kts
15-Nov-22 11:01 40.650547 -73.811073 231 20ft 0kts
15-Nov-22 11:02 40.650547 -73.811073 231 20ft 0kts
15-Nov-22 11:03 40.650547 -73.811073 231 20ft 0kts
15-Nov-22 11:04 40.650547 -73.811073 231 20ft 0kts
15-Nov-22 11:05 40.650547 -73.811073 231 20ft 0kts
15-Nov-22 11:06 40.650547 -73.811073 231 20ft 0kts
15-Nov-22 11:07 40.650547 -73.811073 231 20ft 0kts
15-Nov-22 11:08 40.650547 -73.811073 231 20ft 0kts
15-Nov-22 11:09 40.650547 -73.811073 231 20ft 0kts
15-Nov-22 11:10 40.650547 -73.811073 231 20ft 0kts
15-Nov-22 11:11 40.650547 -73.811073 231 20ft 0kts
15-Nov-22 11:12 40.650547 -73.811073 231 20ft 0kts
15-Nov-22 11:13 40.650547 -73.811073 231 20ft 0kts
15-Nov-22 11:14 40.650509 -73.811134 230 20ft 7kts
15-Nov-22 11:15 40.649441 -73.813126 299 20ft 8kts
15-Nov-22 11:16 40.650139 -73.814949 253 20ft 2kts
15-Nov-22 11:17 40.649158 -73.815880 211 21ft 11kts
15-Nov-22 11:18 40.645981 -73.811440 120 21ft 122kts
15-Nov-22 11:19 40.607563 -73.755379 136 3707ft 260kts
15-Nov-22 11:19 40.562740 -73.700203 136 4948ft 269kts
15-Nov-22 11:21 40.491024 -73.693535 243 5003ft 268kts
15-Nov-22 11:22 40.472919 -73.789360 256 5972ft 273kts
15-Nov-22 11:23 40.451401 -73.884041 238 6005ft 272kts
15-Nov-22 11:23 40.407337 -73.939499 204 6006ft 272kts
15-Nov-22 11:24 40.340683 -73.986877 208 6001ft 272kts
15-Nov-22 11:25 40.274662 -74.035057 209 6001ft 272kts
15-Nov-22 11:27 40.197544 -74.091774 209 6004ft 272kts
15-Nov-22 11:27 40.142601 -74.132561 209 6001ft 272kts
15-Nov-22 11:28 40.113953 -74.212105 291 6008ft 272kts
15-Nov-22 11:29 40.142845 -74.303741 292 6004ft 272kts
15-Nov-22 11:30 40.171474 -74.395584 292 6001ft 272kts
15-Nov-22 11:31 40.200726 -74.487099 301 6000ft 272kts
15-Nov-22 11:32 40.256046 -74.553810 320 6004ft 272kts
15-Nov-22 11:33 40.312992 -74.615616 325 6003ft 239kts
15-Nov-22 11:34 40.369991 -74.645798 342 6002ft 218kts
15-Nov-22 11:35 40.412399 -74.603447 65 5768ft 221kts
15-Nov-22 11:36 40.438828 -74.530693 64 4469ft 219kts
15-Nov-22 11:37 40.464798 -74.460083 64 4000ft 211kts
15-Nov-22 11:38 40.487068 -74.389229 95 3997ft 212kts
15-Nov-22 11:39 40.443390 -74.374229 237 4003ft 211kts
15-Nov-22 11:40 40.428612 -74.448982 256 4001ft 211kts
15-Nov-22 11:41 40.455551 -74.498917 15 4008ft 211kts
15-Nov-22 11:42 40.480507 -74.433922 77 4001ft 211kts
15-Nov-22 11:43 40.470905 -74.366463 161 4004ft 211kts
15-Nov-22 11:44 40.436005 -74.413826 257 4004ft 211kts
15-Nov-22 11:45 40.432411 -74.488571 311 4001ft 212kts
15-Nov-22 11:46 40.475574 -74.467117 76 3650ft 216kts
15-Nov-22 11:47 40.488392 -74.392197 73 3256ft 209kts
15-Nov-22 11:48 40.504879 -74.319786 73 2964ft 198kts
15-Nov-22 11:49 40.536728 -74.263947 18 2803ft 207kts
15-Nov-22 11:50 40.582027 -74.234840 25 2165ft 168kts
15-Nov-22 11:51 40.623348 -74.208649 25 1286ft 163kts
15-Nov-22 11:52 40.658115 -74.186615 25 548ft 131kts
15-Nov-22 11:53 40.693657 -74.164085 24 1060ft 134kts
15-Nov-22 11:54 40.723465 -74.137100 64 2327ft 135kts
15-Nov-22 11:55 40.751598 -74.088509 21 2755ft 218kts
15-Nov-22 11:56 40.808655 -74.073372 12 2504ft 207kts
15-Nov-22 11:57 40.846722 -74.113220 286 4553ft 210kts
15-Nov-22 11:58 40.853409 -74.191635 235 5997ft 239kts
15-Nov-22 11:59 40.793247 -74.237358 206 6007ft 272kts
15-Nov-22 12:00 40.725899 -74.282616 207 5503ft 270kts
15-Nov-22 12:01 40.659508 -74.327301 207 4051ft 264kts
15-Nov-22 12:02 40.594067 -74.371407 207 3520ft 262kts
15-Nov-22 12:03 40.533455 -74.408066 176 2997ft 210kts
15-Nov-22 12:04 40.503819 -74.345154 107 3000ft 230kts
15-Nov-22 12:05 40.510471 -74.281685 26 3012ft 177kts
15-Nov-22 12:06 40.554615 -74.252289 25 2310ft 175kts
15-Nov-22 12:07 40.598438 -74.224281 25 1777ft 174kts
15-Nov-22 12:08 40.637890 -74.199364 25 990ft 132kts
15-Nov-22 12:09 40.670830 -74.178589 25 293ft 130kts
15-Nov-22 12:10 40.692810 -74.164658 14 19ft 15kts
15-Nov-22 12:11 40.696289 -74.165817 295 19ft 12kts
15-Nov-22 12:12 40.696358 -74.167648 206 19ft 20kts
15-Nov-22 12:13 40.692657 -74.170044 205 19ft 10kts
15-Nov-22 12:14 40.689568 -74.172005 205 19ft 18kts
15-Nov-22 12:15 40.685333 -74.174713 205 19ft 16kts
15-Nov-22 12:16 40.678207 -74.179245 205 19ft 30kts

Navigation Log

Ident Type
Flight plan parsing failed, navigation log unavailable